Time,TemperatureF,DewpointF,PressureIn,WindDirection,WindDirectionDegrees,WindSpeedMPH,WindSpeedGustMPH,Humidity,HourlyPrecipIn,Conditions,Clouds,dailyrainin,SoftwareType,DateUTC
2013-03-24 00:02:00,62.0,23.0,30.03,ENE,65,0.0,4.0,22,0.00,,,0.00,,2013-03-24 07:02:00,
2013-03-24 00:22:00,59.0,24.0,30.03,NNW,348,0.0,3.0,26,0.00,,,0.00,,2013-03-24 07:22:00,
2013-03-24 00:32:00,61.0,23.0,30.02,NNW,348,0.0,0.0,23,0.00,,,0.00,,2013-03-24 07:32:00,
2013-03-24 00:52:00,60.0,23.0,30.02,ENE,71,3.0,4.0,24,0.00,,,0.00,,2013-03-24 07:52:00,
2013-03-24 01:22:00,59.0,25.0,30.01,East,84,5.0,8.0,27,0.00,,,0.00,,2013-03-24 08:22:00,
2013-03-24 01:32:00,58.0,26.0,30.01,ENE,66,5.0,8.0,29,0.00,,,0.00,,2013-03-24 08:32:00,
2013-03-24 01:52:00,59.0,28.0,30.01,ENE,71,5.0,8.0,31,0.00,,,0.00,,2013-03-24 08:52:00,
2013-03-24 02:02:00,59.0,27.0,30.01,ENE,74,3.0,5.0,29,0.00,,,0.00,,2013-03-24 09:02:00,
2013-03-24 02:21:00,58.0,27.0,30.01,ENE,74,5.0,8.0,30,0.00,,,0.00,,2013-03-24 09:21:00,
2013-03-24 02:33:00,58.0,27.0,30.01,East,93,5.0,7.0,30,0.00,,,0.00,,2013-03-24 09:33:00,
2013-03-24 02:52:00,57.0,29.0,30.01,ESE,110,5.0,8.0,34,0.00,,,0.00,,2013-03-24 09:52:00,
2013-03-24 03:02:00,56.0,28.0,30.01,ESE,113,5.0,7.0,34,0.00,,,0.00,,2013-03-24 10:02:00,
2013-03-24 03:22:00,56.0,29.0,30.01,East,98,3.0,5.0,36,0.00,,,0.00,,2013-03-24 10:22:00,
2013-03-24 03:32:00,56.0,30.0,30.01,East,98,2.0,5.0,37,0.00,,,0.00,,2013-03-24 10:32:00,
2013-03-24 03:52:00,55.0,29.0,30.00,East,92,7.0,8.0,36,0.00,,,0.00,,2013-03-24 10:52:00,
2013-03-24 04:02:00,55.0,34.0,30.00,East,90,7.0,9.0,45,0.00,,,0.00,,2013-03-24 11:02:00,
2013-03-24 04:21:00,54.0,35.0,30.00,East,82,7.0,9.0,48,0.00,,,0.00,,2013-03-24 11:21:00,
2013-03-24 04:32:00,54.0,35.0,29.99,East,82,8.0,10.0,49,0.00,,,0.00,,2013-03-24 11:32:00,
2013-03-24 05:02:00,54.0,35.0,30.00,ENE,67,4.0,7.0,48,0.00,,,0.00,,2013-03-24 12:02:00,
2013-03-24 05:22:00,54.0,31.0,30.00,ENE,67,2.0,7.0,42,0.00,,,0.00,,2013-03-24 12:22:00,
2013-03-24 05:32:00,56.0,31.0,30.00,ENE,67,3.0,4.0,38,0.00,,,0.00,,2013-03-24 12:32:00,
2013-03-24 05:52:00,57.0,27.0,30.00,ENE,68,0.0,2.0,32,0.00,,,0.00,,2013-03-24 12:52:00,
2013-03-24 06:02:00,56.0,32.0,30.00,ENE,68,0.0,0.0,40,0.00,,,0.00,,2013-03-24 13:02:00,
2013-03-24 06:32:00,55.0,31.0,30.00,ENE,68,0.0,0.0,39,0.00,,,0.00,,2013-03-24 13:32:00,
2013-03-24 06:52:00,55.0,33.0,30.00,ENE,68,0.0,0.0,43,0.00,,,0.00,,2013-03-24 13:52:00,
2013-03-24 07:02:00,55.0,35.0,30.01,NNW,348,0.0,1.0,46,0.00,,,0.00,,2013-03-24 14:02:00,
2013-03-24 07:22:00,53.0,36.0,30.01,West,279,8.0,9.0,53,0.00,,,0.00,,2013-03-24 14:22:00,
2013-03-24 07:32:00,52.0,36.0,30.01,West,273,4.0,7.0,55,0.00,,,0.00,,2013-03-24 14:32:00,
2013-03-24 07:42:00,52.0,36.0,30.01,West,273,4.0,7.0,55,0.00,,,0.00,,2013-03-24 14:42:00,
2013-03-24 07:52:00,51.0,38.0,30.02,West,268,5.0,6.0,61,0.00,,,0.00,,2013-03-24 14:52:00,
2013-03-24 08:02:00,52.0,39.0,30.03,West,271,0.0,5.0,62,0.00,,,0.00,,2013-03-24 15:02:00,
2013-03-24 08:12:00,52.0,39.0,30.03,West,271,0.0,5.0,62,0.00,,,0.00,,2013-03-24 15:12:00,
2013-03-24 08:22:00,54.0,37.0,30.03,WNW,284,0.0,0.0,52,0.00,,,0.00,,2013-03-24 15:22:00,
2013-03-24 08:33:00,56.0,34.0,30.03,NE,44,0.0,0.0,44,0.00,,,0.00,,2013-03-24 15:33:00,
2013-03-24 08:52:00,55.0,38.0,30.03,NE,43,1.0,3.0,52,0.00,,,0.00,,2013-03-24 15:52:00,
2013-03-24 09:02:00,54.0,39.0,30.04,NE,40,2.0,3.0,56,0.00,,,0.00,,2013-03-24 16:02:00,
2013-03-24 09:12:00,54.0,39.0,30.04,NE,40,2.0,3.0,56,0.00,,,0.00,,2013-03-24 16:12:00,
2013-03-24 09:22:00,53.0,37.0,30.05,WNW,291,2.0,4.0,55,0.00,,,0.00,,2013-03-24 16:22:00,
2013-03-24 09:32:00,58.0,40.0,30.04,East,80,2.0,4.0,51,0.00,,,0.00,,2013-03-24 16:32:00,
2013-03-24 09:52:00,61.0,37.0,30.04,East,83,1.0,6.0,41,0.00,,,0.00,,2013-03-24 16:52:00,
2013-03-24 10:02:00,58.0,39.0,30.04,WNW,294,0.0,4.0,50,0.00,,,0.00,,2013-03-24 17:02:00,
2013-03-24 10:12:00,58.0,39.0,30.04,WNW,294,0.0,4.0,50,0.00,,,0.00,,2013-03-24 17:12:00,
2013-03-24 10:22:00,57.0,41.0,30.04,WSW,250,4.0,7.0,54,0.00,,,0.00,,2013-03-24 17:22:00,
2013-03-24 10:32:00,58.0,42.0,30.04,West,274,2.0,6.0,55,0.00,,,0.00,,2013-03-24 17:32:00,
2013-03-24 10:42:00,58.0,42.0,30.04,West,274,2.0,6.0,55,0.00,,,0.00,,2013-03-24 17:42:00,
2013-03-24 10:52:00,58.0,43.0,30.04,West,275,6.0,8.0,58,0.00,,,0.00,,2013-03-24 17:52:00,
2013-03-24 11:02:00,58.0,44.0,30.04,WNW,296,5.0,8.0,60,0.00,,,0.00,,2013-03-24 18:02:00,
2013-03-24 11:12:00,58.0,44.0,30.04,WNW,296,5.0,8.0,60,0.00,,,0.00,,2013-03-24 18:12:00,
2013-03-24 11:22:00,59.0,46.0,30.04,WNW,293,5.0,9.0,61,0.00,,,0.00,,2013-03-24 18:22:00,
2013-03-24 11:32:00,60.0,46.0,30.03,WNW,293,3.0,6.0,59,0.00,,,0.00,,2013-03-24 18:32:00,
2013-03-24 11:42:00,60.0,46.0,30.03,WNW,293,3.0,6.0,59,0.00,,,0.00,,2013-03-24 18:42:00,
2013-03-24 11:52:00,60.0,47.0,30.03,NW,304,7.0,11.0,63,0.00,,,0.00,,2013-03-24 18:52:00,
2013-03-24 12:02:00,60.0,47.0,30.03,WNW,298,8.0,13.0,62,0.00,,,0.00,,2013-03-24 19:02:00,
2013-03-24 12:11:00,60.0,47.0,30.03,WNW,298,8.0,13.0,62,0.00,,,0.00,,2013-03-24 19:11:00,
2013-03-24 12:22:00,61.0,47.0,30.03,West,278,7.0,12.0,60,0.00,,,0.00,,2013-03-24 19:22:00,
2013-03-24 12:32:00,61.0,47.0,30.02,WNW,300,8.0,12.0,60,0.00,,,0.00,,2013-03-24 19:32:00,
2013-03-24 12:42:00,61.0,47.0,30.02,WNW,300,8.0,12.0,60,0.00,,,0.00,,2013-03-24 19:42:00,
2013-03-24 12:53:00,63.0,48.0,30.01,WNW,284,6.0,11.0,58,0.00,,,0.00,,2013-03-24 19:53:00,
2013-03-24 13:02:00,63.0,48.0,30.01,West,267,5.0,10.0,59,0.00,,,0.00,,2013-03-24 20:02:00,
2013-03-24 13:12:00,63.0,48.0,30.01,West,267,5.0,10.0,59,0.00,,,0.00,,2013-03-24 20:12:00,
2013-03-24 13:22:00,64.0,49.0,30.01,West,273,7.0,10.0,58,0.00,,,0.00,,2013-03-24 20:22:00,
2013-03-24 13:32:00,64.0,50.0,30.00,WNW,287,5.0,11.0,60,0.00,,,0.00,,2013-03-24 20:32:00,
2013-03-24 13:42:00,64.0,50.0,30.00,WNW,287,5.0,11.0,60,0.00,,,0.00,,2013-03-24 20:42:00,
2013-03-24 13:52:00,64.0,49.0,30.00,West,271,7.0,11.0,58,0.00,,,0.00,,2013-03-24 20:52:00,
2013-03-24 14:02:00,64.0,49.0,30.00,West,271,7.0,11.0,58,0.00,,,0.00,,2013-03-24 21:02:00,
2013-03-24 14:11:00,64.0,49.0,30.00,West,271,7.0,11.0,58,0.00,,,0.00,,2013-03-24 21:11:00,
2013-03-24 14:22:00,63.0,49.0,29.99,West,259,8.0,14.0,61,0.00,,,0.00,,2013-03-24 21:22:00,
2013-03-24 14:33:00,62.0,48.0,29.99,WNW,290,10.0,17.0,60,0.00,,,0.00,,2013-03-24 21:33:00,
2013-03-24 14:43:00,62.0,48.0,29.99,WNW,290,10.0,17.0,60,0.00,,,0.00,,2013-03-24 21:43:00,
2013-03-24 14:52:00,62.0,48.0,29.98,West,264,9.0,13.0,60,0.00,,,0.00,,2013-03-24 21:52:00,
2013-03-24 15:02:00,63.0,49.0,29.98,West,273,8.0,13.0,61,0.00,,,0.00,,2013-03-24 22:02:00,
2013-03-24 15:12:00,63.0,49.0,29.98,West,273,8.0,13.0,61,0.00,,,0.00,,2013-03-24 22:12:00,
2013-03-24 15:22:00,63.0,50.0,29.97,WNW,283,7.0,11.0,62,0.00,,,0.00,,2013-03-24 22:22:00,
2013-03-24 15:32:00,64.0,50.0,29.97,WNW,297,9.0,13.0,61,0.00,,,0.00,,2013-03-24 22:32:00,
2013-03-24 15:42:00,64.0,50.0,29.97,WNW,297,9.0,13.0,61,0.00,,,0.00,,2013-03-24 22:42:00,
2013-03-24 15:52:00,64.0,49.0,29.97,West,269,10.0,14.0,59,0.00,,,0.00,,2013-03-24 22:52:00,
2013-03-24 16:02:00,65.0,48.0,29.96,West,277,8.0,14.0,54,0.00,,,0.00,,2013-03-24 23:02:00,
2013-03-24 16:11:00,65.0,48.0,29.96,West,277,8.0,14.0,54,0.00,,,0.00,,2013-03-24 23:11:00,
2013-03-24 16:22:00,65.0,48.0,29.96,West,277,8.0,14.0,54,0.00,,,0.00,,2013-03-24 23:22:00,
2013-03-24 16:32:00,64.0,47.0,29.96,West,271,8.0,15.0,54,0.00,,,0.00,,2013-03-24 23:32:00,
2013-03-24 16:42:00,64.0,47.0,29.96,West,271,8.0,15.0,54,0.00,,,0.00,,2013-03-24 23:42:00,
2013-03-24 16:52:00,65.0,48.0,29.95,West,270,7.0,14.0,54,0.00,,,0.00,,2013-03-24 23:52:00,
2013-03-24 17:02:00,64.0,47.0,29.95,West,267,9.0,15.0,54,0.00,,,0.00,,2013-03-25 00:02:00,
2013-03-24 17:12:00,64.0,47.0,29.95,West,267,9.0,15.0,54,0.00,,,0.00,,2013-03-25 00:12:00,
2013-03-24 17:22:00,63.0,46.0,29.94,WNW,291,9.0,14.0,54,0.00,,,0.00,,2013-03-25 00:22:00,
2013-03-24 17:32:00,63.0,46.0,29.94,NW,306,7.0,14.0,54,0.00,,,0.00,,2013-03-25 00:32:00,
2013-03-24 17:42:00,63.0,46.0,29.94,NW,306,7.0,14.0,54,0.00,,,0.00,,2013-03-25 00:42:00,
2013-03-24 17:52:00,62.0,46.0,29.93,West,274,8.0,14.0,55,0.00,,,0.00,,2013-03-25 00:52:00,
2013-03-24 18:02:00,61.0,46.0,29.93,West,274,10.0,15.0,57,0.00,,,0.00,,2013-03-25 01:02:00,
2013-03-24 18:11:00,61.0,46.0,29.93,West,274,10.0,15.0,57,0.00,,,0.00,,2013-03-25 01:11:00,
2013-03-24 18:22:00,61.0,46.0,29.93,WNW,286,9.0,13.0,57,0.00,,,0.00,,2013-03-25 01:22:00,
2013-03-24 18:32:00,61.0,44.0,29.93,West,276,9.0,13.0,53,0.00,,,0.00,,2013-03-25 01:32:00,
2013-03-24 18:42:00,61.0,44.0,29.93,West,276,9.0,13.0,53,0.00,,,0.00,,2013-03-25 01:42:00,
2013-03-24 18:52:00,63.0,37.0,29.93,West,270,6.0,10.0,38,0.00,,,0.00,,2013-03-25 01:52:00,
2013-03-24 19:01:00,62.0,35.0,29.93,WNW,285,7.0,12.0,36,0.00,,,0.00,,2013-03-25 02:01:00,
2013-03-24 19:11:00,62.0,35.0,29.93,WNW,285,7.0,12.0,36,0.00,,,0.00,,2013-03-25 02:11:00,
2013-03-24 19:22:00,61.0,31.0,29.93,West,276,7.0,10.0,32,0.00,,,0.00,,2013-03-25 02:22:00,
2013-03-24 19:32:00,62.0,26.0,29.93,West,273,10.0,15.0,25,0.00,,,0.00,,2013-03-25 02:32:00,
2013-03-24 19:52:00,62.0,23.0,29.93,West,276,12.0,15.0,22,0.00,,,0.00,,2013-03-25 02:52:00,
2013-03-24 20:02:00,62.0,24.0,29.93,West,265,5.0,9.0,23,0.00,,,0.00,,2013-03-25 03:02:00,
2013-03-24 20:22:00,63.0,32.0,29.93,NW,325,2.0,7.0,31,0.00,,,0.00,,2013-03-25 03:22:00,
2013-03-24 20:33:00,63.0,36.0,29.93,NNW,330,0.0,4.0,36,0.00,,,0.00,,2013-03-25 03:33:00,
2013-03-24 20:42:00,63.0,32.0,29.93,NNW,330,0.0,0.0,31,0.00,,,0.00,,2013-03-25 03:42:00,
2013-03-24 21:02:00,63.0,32.0,29.93,NNW,344,0.0,3.0,31,0.00,,,0.00,,2013-03-25 04:02:00,
2013-03-24 21:22:00,64.0,29.0,29.93,NNW,344,0.0,0.0,27,0.00,,,0.00,,2013-03-25 04:22:00,
2013-03-24 21:52:00,64.0,27.0,29.95,NNW,344,2.0,3.0,25,0.00,,,0.00,,2013-03-25 04:52:00,
2013-03-24 22:02:00,64.0,31.0,29.95,NNW,344,0.0,0.0,29,0.00,,,0.00,,2013-03-25 05:02:00,
2013-03-24 22:22:00,63.0,29.0,29.95,NNW,344,0.0,0.0,27,0.00,,,0.00,,2013-03-25 05:22:00,
2013-03-24 22:32:00,63.0,28.0,29.95,NNE,14,3.0,4.0,26,0.00,,,0.00,,2013-03-25 05:32:00,
2013-03-24 22:52:00,64.0,32.0,29.95,NE,45,1.0,4.0,30,0.00,,,0.00,,2013-03-25 05:52:00,
2013-03-24 23:02:00,65.0,28.0,29.96,ENE,61,1.0,4.0,25,0.00,,,0.00,,2013-03-25 06:02:00,
2013-03-24 23:32:00,65.0,26.0,29.96,ENE,61,2.0,4.0,23,0.00,,,0.00,,2013-03-25 06:32:00,
2013-03-24 23:51:00,64.0,25.0,29.95,ENE,61,3.0,4.0,23,0.00,,,0.00,,2013-03-25 06:51:00,